Terminal Aerodrome Forecast
Issued by NWS

Home | Current Version | Previous Version | Text Only | Print | Product List | Glossary On
Versions: 1 2 3 4 5 6 7 8 9 10 11 12 13
000
FTUS45 KRIW 280526
TAFCPR
TAF
KCPR 280526Z 2806/2906 25007KT P6SM SKC
     FM281500 22010G15KT P6SM FEW100
     FM281800 26017G26KT P6SM SCT100
     FM282300 VRB20G30KT P6SM VCTS SCT100CB BKN150
     FM290400 VRB10G15KT P6SM VCSH BKN100=

USA.gov is the U.S. government's official web portal to all federal, state and local government web resources and services.